sensor_id;sensor_type;location;lat;lon;timestamp;P1;durP1;ratioP1;P2;durP2;ratioP2
76357;SDS011;65185;21.060;105.826;2024-03-08T00:00:40;102.63;;;54.90;;
76357;SDS011;65185;21.060;105.826;2024-03-08T00:03:08;99.72;;;54.00;;
76357;SDS011;65185;21.060;105.826;2024-03-08T00:05:35;107.35;;;60.78;;
76357;SDS011;65185;21.060;105.826;2024-03-08T00:08:05;117.55;;;62.60;;
76357;SDS011;65185;21.060;105.826;2024-03-08T00:10:35;115.53;;;63.00;;
76357;SDS011;65185;21.060;105.826;2024-03-08T00:13:02;115.15;;;61.55;;
76357;SDS011;65185;21.060;105.826;2024-03-08T00:15:29;112.38;;;63.47;;
76357;SDS011;65185;21.060;105.826;2024-03-08T00:17:57;117.78;;;63.05;;
76357;SDS011;65185;21.060;105.826;2024-03-08T00:20:24;117.22;;;62.20;;
76357;SDS011;65185;21.060;105.826;2024-03-08T00:22:51;113.15;;;58.55;;
76357;SDS011;65185;21.060;105.826;2024-03-08T00:25:18;117.75;;;62.50;;
76357;SDS011;65185;21.060;105.826;2024-03-08T00:27:45;113.07;;;61.33;;
76357;SDS011;65185;21.060;105.826;2024-03-08T00:32:41;117.20;;;61.55;;
76357;SDS011;65185;21.060;105.826;2024-03-08T00:35:07;118.65;;;62.67;;
76357;SDS011;65185;21.060;105.826;2024-03-08T00:37:35;122.25;;;62.25;;
76357;SDS011;65185;21.060;105.826;2024-03-08T00:40:02;113.95;;;60.95;;
76357;SDS011;65185;21.060;105.826;2024-03-08T00:42:30;113.38;;;61.17;;
76357;SDS011;65185;21.060;105.826;2024-03-08T00:44:56;119.45;;;61.88;;
76357;SDS011;65185;21.060;105.826;2024-03-08T00:47:23;114.15;;;60.60;;
76357;SDS011;65185;21.060;105.826;2024-03-08T00:49:50;117.68;;;62.53;;
76357;SDS011;65185;21.060;105.826;2024-03-08T00:52:17;123.55;;;65.38;;
76357;SDS011;65185;21.060;105.826;2024-03-08T00:54:43;120.80;;;65.40;;
76357;SDS011;65185;21.060;105.826;2024-03-08T00:57:10;119.03;;;63.30;;
76357;SDS011;65185;21.060;105.826;2024-03-08T00:59:40;123.05;;;67.03;;
76357;SDS011;65185;21.060;105.826;2024-03-08T01:02:07;127.25;;;65.53;;
76357;SDS011;65185;21.060;105.826;2024-03-08T01:07:02;121.18;;;63.58;;
76357;SDS011;65185;21.060;105.826;2024-03-08T01:09:29;112.93;;;61.63;;
76357;SDS011;65185;21.060;105.826;2024-03-08T01:11:56;126.53;;;62.95;;
76357;SDS011;65185;21.060;105.826;2024-03-08T01:14:23;108.80;;;59.50;;
76357;SDS011;65185;21.060;105.826;2024-03-08T01:16:56;115.55;;;61.67;;
76357;SDS011;65185;21.060;105.826;2024-03-08T01:19:23;110.90;;;59.00;;
76357;SDS011;65185;21.060;105.826;2024-03-08T01:21:49;108.75;;;57.80;;
76357;SDS011;65185;21.060;105.826;2024-03-08T01:24:16;115.15;;;60.67;;
76357;SDS011;65185;21.060;105.826;2024-03-08T01:26:43;104.25;;;56.55;;
76357;SDS011;65185;21.060;105.826;2024-03-08T01:29:12;117.18;;;59.88;;
76357;SDS011;65185;21.060;105.826;2024-03-08T01:31:39;117.75;;;60.50;;
76357;SDS011;65185;21.060;105.826;2024-03-08T01:34:06;117.88;;;60.70;;
76357;SDS011;65185;21.060;105.826;2024-03-08T01:36:32;104.13;;;55.22;;
76357;SDS011;65185;21.060;105.826;2024-03-08T01:38:59;116.90;;;61.88;;
76357;SDS011;65185;21.060;105.826;2024-03-08T01:41:26;111.63;;;59.80;;
76357;SDS011;65185;21.060;105.826;2024-03-08T01:43:55;104.35;;;57.33;;
76357;SDS011;65185;21.060;105.826;2024-03-08T01:46:21;113.18;;;59.95;;
76357;SDS011;65185;21.060;105.826;2024-03-08T01:48:48;107.07;;;60.03;;
76357;SDS011;65185;21.060;105.826;2024-03-08T01:51:18;109.22;;;60.33;;
76357;SDS011;65185;21.060;105.826;2024-03-08T01:53:46;117.57;;;61.97;;
76357;SDS011;65185;21.060;105.826;2024-03-08T01:56:13;107.57;;;58.90;;
76357;SDS011;65185;21.060;105.826;2024-03-08T01:58:43;108.80;;;57.70;;
76357;SDS011;65185;21.060;105.826;2024-03-08T02:01:12;99.88;;;54.25;;
76357;SDS011;65185;21.060;105.826;2024-03-08T02:03:44;106.53;;;57.65;;
76357;SDS011;65185;21.060;105.826;2024-03-08T02:06:12;105.18;;;55.92;;
76357;SDS011;65185;21.060;105.826;2024-03-08T02:08:45;110.97;;;57.47;;
76357;SDS011;65185;21.060;105.826;2024-03-08T02:11:13;109.20;;;59.33;;
76357;SDS011;65185;21.060;105.826;2024-03-08T02:13:41;95.50;;;54.05;;
76357;SDS011;65185;21.060;105.826;2024-03-08T02:16:08;115.07;;;59.40;;
76357;SDS011;65185;21.060;105.826;2024-03-08T02:18:35;105.93;;;60.20;;
76357;SDS011;65185;21.060;105.826;2024-03-08T02:21:05;109.75;;;59.58;;
76357;SDS011;65185;21.060;105.826;2024-03-08T02:23:33;127.45;;;66.90;;
76357;SDS011;65185;21.060;105.826;2024-03-08T02:26:00;129.43;;;66.03;;
76357;SDS011;65185;21.060;105.826;2024-03-08T02:28:27;129.93;;;72.72;;
76357;SDS011;65185;21.060;105.826;2024-03-08T02:30:54;140.32;;;72.90;;
76357;SDS011;65185;21.060;105.826;2024-03-08T02:33:21;133.57;;;72.45;;
76357;SDS011;65185;21.060;105.826;2024-03-08T02:35:49;131.73;;;71.35;;
76357;SDS011;65185;21.060;105.826;2024-03-08T02:38:16;133.15;;;70.85;;
76357;SDS011;65185;21.060;105.826;2024-03-08T02:40:45;137.00;;;71.00;;
76357;SDS011;65185;21.060;105.826;2024-03-08T02:43:13;125.88;;;69.53;;
76357;SDS011;65185;21.060;105.826;2024-03-08T02:45:41;121.38;;;66.20;;
76357;SDS011;65185;21.060;105.826;2024-03-08T02:48:07;131.15;;;70.88;;
76357;SDS011;65185;21.060;105.826;2024-03-08T02:50:35;119.18;;;68.03;;
76357;SDS011;65185;21.060;105.826;2024-03-08T02:53:02;125.05;;;69.53;;
76357;SDS011;65185;21.060;105.826;2024-03-08T02:55:29;126.70;;;66.00;;
76357;SDS011;65185;21.060;105.826;2024-03-08T02:57:56;119.47;;;68.43;;
76357;SDS011;65185;21.060;105.826;2024-03-08T03:00:24;130.52;;;71.43;;
76357;SDS011;65185;21.060;105.826;2024-03-08T03:02:53;127.93;;;69.80;;
76357;SDS011;65185;21.060;105.826;2024-03-08T03:05:22;125.97;;;68.07;;
76357;SDS011;65185;21.060;105.826;2024-03-08T03:07:50;110.55;;;61.58;;
76357;SDS011;65185;21.060;105.826;2024-03-08T03:10:17;108.93;;;60.33;;
76357;SDS011;65185;21.060;105.826;2024-03-08T03:12:47;117.40;;;65.30;;
76357;SDS011;65185;21.060;105.826;2024-03-08T03:15:14;112.70;;;63.40;;
76357;SDS011;65185;21.060;105.826;2024-03-08T03:17:47;120.15;;;65.80;;
76357;SDS011;65185;21.060;105.826;2024-03-08T03:20:16;133.07;;;70.45;;
76357;SDS011;65185;21.060;105.826;2024-03-08T03:22:51;124.50;;;71.45;;
76357;SDS011;65185;21.060;105.826;2024-03-08T03:25:19;123.70;;;69.05;;
76357;SDS011;65185;21.060;105.826;2024-03-08T03:27:54;111.32;;;62.03;;
76357;SDS011;65185;21.060;105.826;2024-03-08T03:33:01;123.57;;;67.20;;
76357;SDS011;65185;21.060;105.826;2024-03-08T03:35:40;118.68;;;66.68;;
76357;SDS011;65185;21.060;105.826;2024-03-08T03:38:08;110.25;;;63.42;;
76357;SDS011;65185;21.060;105.826;2024-03-08T03:40:39;135.05;;;75.50;;
76357;SDS011;65185;21.060;105.826;2024-03-08T03:43:06;137.38;;;73.57;;
76357;SDS011;65185;21.060;105.826;2024-03-08T03:45:36;141.13;;;76.97;;
76357;SDS011;65185;21.060;105.826;2024-03-08T03:48:03;139.40;;;80.60;;
76357;SDS011;65185;21.060;105.826;2024-03-08T03:50:32;151.52;;;81.53;;
76357;SDS011;65185;21.060;105.826;2024-03-08T03:52:59;151.23;;;80.88;;
76357;SDS011;65185;21.060;105.826;2024-03-08T03:55:27;162.52;;;86.90;;
76357;SDS011;65185;21.060;105.826;2024-03-08T03:57:54;156.85;;;84.75;;
76357;SDS011;65185;21.060;105.826;2024-03-08T04:00:21;154.15;;;84.63;;
76357;SDS011;65185;21.060;105.826;2024-03-08T04:02:48;159.55;;;85.20;;
76357;SDS011;65185;21.060;105.826;2024-03-08T04:05:16;156.18;;;84.35;;
76357;SDS011;65185;21.060;105.826;2024-03-08T04:07:43;153.43;;;87.10;;
76357;SDS011;65185;21.060;105.826;2024-03-08T04:10:10;152.30;;;82.40;;
76357;SDS011;65185;21.060;105.826;2024-03-08T04:12:38;146.40;;;80.18;;
76357;SDS011;65185;21.060;105.826;2024-03-08T04:15:05;160.95;;;90.15;;
76357;SDS011;65185;21.060;105.826;2024-03-08T04:17:36;150.25;;;82.95;;
76357;SDS011;65185;21.060;105.826;2024-03-08T04:20:03;145.63;;;81.10;;
76357;SDS011;65185;21.060;105.826;2024-03-08T04:22:38;133.50;;;75.70;;
76357;SDS011;65185;21.060;105.826;2024-03-08T04:25:08;149.32;;;81.95;;
76357;SDS011;65185;21.060;105.826;2024-03-08T04:27:35;148.50;;;81.00;;
76357;SDS011;65185;21.060;105.826;2024-03-08T04:30:06;150.48;;;83.20;;
76357;SDS011;65185;21.060;105.826;2024-03-08T04:32:36;149.18;;;81.55;;
76357;SDS011;65185;21.060;105.826;2024-03-08T04:35:03;153.23;;;81.93;;
76357;SDS011;65185;21.060;105.826;2024-03-08T04:37:30;151.10;;;83.47;;
76357;SDS011;65185;21.060;105.826;2024-03-08T04:39:57;140.90;;;81.13;;
76357;SDS011;65185;21.060;105.826;2024-03-08T04:42:24;141.15;;;76.22;;
76357;SDS011;65185;21.060;105.826;2024-03-08T04:44:52;145.15;;;81.57;;
76357;SDS011;65185;21.060;105.826;2024-03-08T04:47:21;129.40;;;75.40;;
76357;SDS011;65185;21.060;105.826;2024-03-08T04:49:54;151.90;;;82.28;;
76357;SDS011;65185;21.060;105.826;2024-03-08T04:52:23;169.77;;;91.38;;
76357;SDS011;65185;21.060;105.826;2024-03-08T04:54:53;179.27;;;93.15;;
76357;SDS011;65185;21.060;105.826;2024-03-08T04:57:20;163.82;;;88.72;;
76357;SDS011;65185;21.060;105.826;2024-03-08T04:59:47;182.50;;;95.35;;
76357;SDS011;65185;21.060;105.826;2024-03-08T05:04:43;169.15;;;93.00;;
76357;SDS011;65185;21.060;105.826;2024-03-08T05:07:10;171.68;;;90.90;;
76357;SDS011;65185;21.060;105.826;2024-03-08T05:09:36;166.73;;;89.82;;
76357;SDS011;65185;21.060;105.826;2024-03-08T05:14:33;177.20;;;95.15;;
76357;SDS011;65185;21.060;105.826;2024-03-08T05:17:00;183.40;;;98.30;;
76357;SDS011;65185;21.060;105.826;2024-03-08T05:19:30;189.15;;;99.53;;
76357;SDS011;65185;21.060;105.826;2024-03-08T05:21:57;168.07;;;93.28;;
76357;SDS011;65185;21.060;105.826;2024-03-08T05:24:23;181.30;;;95.20;;
76357;SDS011;65185;21.060;105.826;2024-03-08T05:26:50;150.10;;;88.35;;
76357;SDS011;65185;21.060;105.826;2024-03-08T05:29:17;155.43;;;88.25;;
76357;SDS011;65185;21.060;105.826;2024-03-08T05:31:48;147.52;;;83.35;;
76357;SDS011;65185;21.060;105.826;2024-03-08T05:34:19;155.10;;;89.15;;
76357;SDS011;65185;21.060;105.826;2024-03-08T05:36:47;164.35;;;89.63;;
76357;SDS011;65185;21.060;105.826;2024-03-08T05:39:19;166.00;;;89.53;;
76357;SDS011;65185;21.060;105.826;2024-03-08T05:41:46;162.18;;;91.03;;
76357;SDS011;65185;21.060;105.826;2024-03-08T05:44:13;153.32;;;86.50;;
76357;SDS011;65185;21.060;105.826;2024-03-08T05:49:08;148.32;;;82.18;;
76357;SDS011;65185;21.060;105.826;2024-03-08T05:51:39;154.70;;;84.93;;
76357;SDS011;65185;21.060;105.826;2024-03-08T05:54:07;148.68;;;82.47;;
76357;SDS011;65185;21.060;105.826;2024-03-08T05:56:38;144.55;;;82.85;;
76357;SDS011;65185;21.060;105.826;2024-03-08T05:59:09;137.35;;;80.43;;
76357;SDS011;65185;21.060;105.826;2024-03-08T06:01:37;141.10;;;80.65;;
76357;SDS011;65185;21.060;105.826;2024-03-08T06:04:06;142.88;;;84.20;;
76357;SDS011;65185;21.060;105.826;2024-03-08T06:06:33;137.38;;;80.75;;
76357;SDS011;65185;21.060;105.826;2024-03-08T06:09:00;134.15;;;77.10;;
76357;SDS011;65185;21.060;105.826;2024-03-08T06:11:34;142.85;;;81.85;;
76357;SDS011;65185;21.060;105.826;2024-03-08T06:14:00;131.02;;;76.68;;
76357;SDS011;65185;21.060;105.826;2024-03-08T06:16:27;124.00;;;73.07;;
76357;SDS011;65185;21.060;105.826;2024-03-08T06:18:57;121.43;;;71.60;;
76357;SDS011;65185;21.060;105.826;2024-03-08T06:21:24;132.85;;;76.82;;
76357;SDS011;65185;21.060;105.826;2024-03-08T06:23:54;131.38;;;79.85;;
76357;SDS011;65185;21.060;105.826;2024-03-08T06:26:23;134.85;;;79.38;;
76357;SDS011;65185;21.060;105.826;2024-03-08T06:28:50;143.98;;;81.50;;
76357;SDS011;65185;21.060;105.826;2024-03-08T06:31:17;132.25;;;78.55;;
76357;SDS011;65185;21.060;105.826;2024-03-08T06:33:45;133.60;;;78.68;;
76357;SDS011;65185;21.060;105.826;2024-03-08T06:36:12;130.73;;;75.70;;
76357;SDS011;65185;21.060;105.826;2024-03-08T06:38:39;122.30;;;73.15;;
76357;SDS011;65185;21.060;105.826;2024-03-08T06:41:11;128.30;;;73.57;;
76357;SDS011;65185;21.060;105.826;2024-03-08T06:43:41;128.75;;;77.85;;
76357;SDS011;65185;21.060;105.826;2024-03-08T06:46:12;140.45;;;81.53;;
76357;SDS011;65185;21.060;105.826;2024-03-08T06:48:40;125.10;;;75.47;;
76357;SDS011;65185;21.060;105.826;2024-03-08T06:51:07;125.85;;;73.47;;
76357;SDS011;65185;21.060;105.826;2024-03-08T06:53:34;130.13;;;77.13;;
76357;SDS011;65185;21.060;105.826;2024-03-08T06:56:01;129.60;;;74.45;;
76357;SDS011;65185;21.060;105.826;2024-03-08T06:58:28;132.77;;;75.78;;
76357;SDS011;65185;21.060;105.826;2024-03-08T07:00:55;132.32;;;77.95;;
76357;SDS011;65185;21.060;105.826;2024-03-08T07:03:25;132.38;;;78.55;;
76357;SDS011;65185;21.060;105.826;2024-03-08T07:05:55;123.15;;;72.93;;
76357;SDS011;65185;21.060;105.826;2024-03-08T07:08:27;124.55;;;74.43;;
76357;SDS011;65185;21.060;105.826;2024-03-08T07:10:55;121.22;;;71.35;;
76357;SDS011;65185;21.060;105.826;2024-03-08T07:13:23;122.53;;;73.70;;
76357;SDS011;65185;21.060;105.826;2024-03-08T07:15:50;114.55;;;70.03;;
76357;SDS011;65185;21.060;105.826;2024-03-08T07:18:17;127.25;;;76.05;;
76357;SDS011;65185;21.060;105.826;2024-03-08T07:20:44;132.15;;;77.28;;
76357;SDS011;65185;21.060;105.826;2024-03-08T07:23:11;123.25;;;72.95;;
76357;SDS011;65185;21.060;105.826;2024-03-08T07:25:57;131.68;;;78.15;;
76357;SDS011;65185;21.060;105.826;2024-03-08T07:28:26;120.72;;;72.90;;
76357;SDS011;65185;21.060;105.826;2024-03-08T07:30:56;117.95;;;70.10;;
76357;SDS011;65185;21.060;105.826;2024-03-08T07:33:43;112.47;;;65.40;;
76357;SDS011;65185;21.060;105.826;2024-03-08T07:36:10;128.73;;;73.55;;
76357;SDS011;65185;21.060;105.826;2024-03-08T07:38:37;114.65;;;69.38;;
76357;SDS011;65185;21.060;105.826;2024-03-08T07:41:03;113.43;;;68.07;;
76357;SDS011;65185;21.060;105.826;2024-03-08T07:43:30;117.80;;;70.00;;
76357;SDS011;65185;21.060;105.826;2024-03-08T07:45:58;120.43;;;67.63;;
76357;SDS011;65185;21.060;105.826;2024-03-08T07:48:24;126.82;;;72.82;;
76357;SDS011;65185;21.060;105.826;2024-03-08T07:50:52;124.75;;;72.80;;
76357;SDS011;65185;21.060;105.826;2024-03-08T07:53:19;126.40;;;75.40;;
76357;SDS011;65185;21.060;105.826;2024-03-08T07:55:46;117.78;;;70.28;;
76357;SDS011;65185;21.060;105.826;2024-03-08T07:58:13;113.45;;;68.80;;
76357;SDS011;65185;21.060;105.826;2024-03-08T08:00:39;112.63;;;68.78;;
76357;SDS011;65185;21.060;105.826;2024-03-08T08:03:12;111.88;;;66.45;;
76357;SDS011;65185;21.060;105.826;2024-03-08T08:05:46;113.05;;;66.03;;
76357;SDS011;65185;21.060;105.826;2024-03-08T08:08:14;110.07;;;66.07;;
76357;SDS011;65185;21.060;105.826;2024-03-08T08:10:41;116.45;;;67.93;;
76357;SDS011;65185;21.060;105.826;2024-03-08T08:13:07;118.88;;;69.63;;
76357;SDS011;65185;21.060;105.826;2024-03-08T08:15:34;117.45;;;68.43;;
76357;SDS011;65185;21.060;105.826;2024-03-08T08:18:01;127.25;;;73.72;;
76357;SDS011;65185;21.060;105.826;2024-03-08T08:20:30;126.30;;;73.60;;
76357;SDS011;65185;21.060;105.826;2024-03-08T08:22:57;118.57;;;70.82;;
76357;SDS011;65185;21.060;105.826;2024-03-08T08:25:24;122.28;;;73.28;;
76357;SDS011;65185;21.060;105.826;2024-03-08T08:27:51;134.10;;;78.10;;
76357;SDS011;65185;21.060;105.826;2024-03-08T08:30:19;128.73;;;75.07;;
76357;SDS011;65185;21.060;105.826;2024-03-08T08:32:46;123.18;;;74.80;;
76357;SDS011;65185;21.060;105.826;2024-03-08T08:35:14;126.88;;;74.13;;
76357;SDS011;65185;21.060;105.826;2024-03-08T08:37:40;124.28;;;72.85;;
76357;SDS011;65185;21.060;105.826;2024-03-08T08:40:08;121.70;;;71.68;;
76357;SDS011;65185;21.060;105.826;2024-03-08T08:42:38;122.45;;;71.85;;
76357;SDS011;65185;21.060;105.826;2024-03-08T08:45:05;121.32;;;74.00;;
76357;SDS011;65185;21.060;105.826;2024-03-08T08:47:36;123.18;;;72.85;;
76357;SDS011;65185;21.060;105.826;2024-03-08T08:50:03;125.38;;;71.88;;
76357;SDS011;65185;21.060;105.826;2024-03-08T08:52:31;120.93;;;69.78;;
76357;SDS011;65185;21.060;105.826;2024-03-08T08:54:58;121.05;;;69.00;;
76357;SDS011;65185;21.060;105.826;2024-03-08T08:57:25;120.05;;;70.57;;
76357;SDS011;65185;21.060;105.826;2024-03-08T08:59:53;119.25;;;69.53;;
76357;SDS011;65185;21.060;105.826;2024-03-08T09:02:20;118.50;;;70.22;;
76357;SDS011;65185;21.060;105.826;2024-03-08T09:04:47;116.40;;;68.93;;
76357;SDS011;65185;21.060;105.826;2024-03-08T09:07:14;120.57;;;72.18;;
76357;SDS011;65185;21.060;105.826;2024-03-08T09:09:44;122.53;;;71.63;;
76357;SDS011;65185;21.060;105.826;2024-03-08T09:12:11;119.47;;;69.50;;
76357;SDS011;65185;21.060;105.826;2024-03-08T09:14:41;115.22;;;68.50;;
76357;SDS011;65185;21.060;105.826;2024-03-08T09:17:08;116.15;;;68.35;;
76357;SDS011;65185;21.060;105.826;2024-03-08T09:19:35;110.43;;;66.30;;
76357;SDS011;65185;21.060;105.826;2024-03-08T09:22:02;120.00;;;69.43;;
76357;SDS011;65185;21.060;105.826;2024-03-08T09:24:32;118.55;;;67.32;;
76357;SDS011;65185;21.060;105.826;2024-03-08T09:26:59;118.60;;;68.22;;
76357;SDS011;65185;21.060;105.826;2024-03-08T09:29:25;118.90;;;71.28;;
76357;SDS011;65185;21.060;105.826;2024-03-08T09:31:56;116.72;;;68.90;;
76357;SDS011;65185;21.060;105.826;2024-03-08T09:34:26;117.22;;;70.00;;
76357;SDS011;65185;21.060;105.826;2024-03-08T09:36:53;117.80;;;69.13;;
76357;SDS011;65185;21.060;105.826;2024-03-08T09:39:20;113.50;;;68.60;;
76357;SDS011;65185;21.060;105.826;2024-03-08T09:41:47;112.80;;;68.78;;
76357;SDS011;65185;21.060;105.826;2024-03-08T09:44:15;113.65;;;68.15;;
76357;SDS011;65185;21.060;105.826;2024-03-08T09:46:43;119.88;;;68.28;;
76357;SDS011;65185;21.060;105.826;2024-03-08T09:49:16;119.03;;;70.05;;
76357;SDS011;65185;21.060;105.826;2024-03-08T09:51:43;113.18;;;67.30;;
76357;SDS011;65185;21.060;105.826;2024-03-08T09:54:11;107.72;;;65.65;;
76357;SDS011;65185;21.060;105.826;2024-03-08T09:56:39;112.97;;;67.72;;
76357;SDS011;65185;21.060;105.826;2024-03-08T09:59:07;114.40;;;67.65;;
76357;SDS011;65185;21.060;105.826;2024-03-08T10:01:37;119.40;;;71.32;;
76357;SDS011;65185;21.060;105.826;2024-03-08T10:04:04;119.15;;;67.60;;
76357;SDS011;65185;21.060;105.826;2024-03-08T10:06:32;119.93;;;71.45;;
76357;SDS011;65185;21.060;105.826;2024-03-08T10:08:59;124.93;;;74.60;;
76357;SDS011;65185;21.060;105.826;2024-03-08T10:11:26;139.68;;;80.32;;
76357;SDS011;65185;21.060;105.826;2024-03-08T10:13:53;133.25;;;77.57;;
76357;SDS011;65185;21.060;105.826;2024-03-08T10:16:20;130.55;;;74.57;;
76357;SDS011;65185;21.060;105.826;2024-03-08T10:18:51;121.38;;;71.75;;
76357;SDS011;65185;21.060;105.826;2024-03-08T10:23:45;132.02;;;76.45;;
76357;SDS011;65185;21.060;105.826;2024-03-08T10:26:14;128.35;;;74.18;;
76357;SDS011;65185;21.060;105.826;2024-03-08T10:28:47;128.20;;;75.43;;
76357;SDS011;65185;21.060;105.826;2024-03-08T10:31:15;122.72;;;71.72;;
76357;SDS011;65185;21.060;105.826;2024-03-08T10:33:43;117.25;;;68.13;;
76357;SDS011;65185;21.060;105.826;2024-03-08T10:36:13;117.85;;;70.60;;
76357;SDS011;65185;21.060;105.826;2024-03-08T10:38:42;116.95;;;71.25;;
76357;SDS011;65185;21.060;105.826;2024-03-08T10:41:12;126.38;;;71.25;;
76357;SDS011;65185;21.060;105.826;2024-03-08T10:43:44;109.45;;;66.97;;
76357;SDS011;65185;21.060;105.826;2024-03-08T10:46:23;121.07;;;72.93;;
76357;SDS011;65185;21.060;105.826;2024-03-08T10:48:54;122.10;;;72.32;;
76357;SDS011;65185;21.060;105.826;2024-03-08T10:51:25;117.63;;;69.60;;
76357;SDS011;65185;21.060;105.826;2024-03-08T10:53:54;112.60;;;68.75;;
76357;SDS011;65185;21.060;105.826;2024-03-08T10:56:23;112.07;;;69.47;;
76357;SDS011;65185;21.060;105.826;2024-03-08T10:58:53;114.70;;;68.10;;
76357;SDS011;65185;21.060;105.826;2024-03-08T11:01:21;117.13;;;69.65;;
76357;SDS011;65185;21.060;105.826;2024-03-08T11:03:49;120.68;;;72.95;;
76357;SDS011;65185;21.060;105.826;2024-03-08T11:06:23;118.65;;;71.60;;
76357;SDS011;65185;21.060;105.826;2024-03-08T11:12:19;114.75;;;67.03;;
76357;SDS011;65185;21.060;105.826;2024-03-08T11:15:01;113.82;;;66.82;;
76357;SDS011;65185;21.060;105.826;2024-03-08T11:17:49;109.57;;;63.53;;
76357;SDS011;65185;21.060;105.826;2024-03-08T11:25:36;100.72;;;62.30;;
76357;SDS011;65185;21.060;105.826;2024-03-08T11:30:45;99.53;;;58.90;;
76357;SDS011;65185;21.060;105.826;2024-03-08T11:33:28;99.90;;;58.45;;
76357;SDS011;65185;21.060;105.826;2024-03-08T11:38:50;101.22;;;59.72;;
76357;SDS011;65185;21.060;105.826;2024-03-08T11:41:22;105.15;;;61.25;;
76357;SDS011;65185;21.060;105.826;2024-03-08T11:43:50;101.25;;;59.05;;
76357;SDS011;65185;21.060;105.826;2024-03-08T11:46:32;104.15;;;59.92;;
76357;SDS011;65185;21.060;105.826;2024-03-08T11:48:59;103.97;;;60.65;;
76357;SDS011;65185;21.060;105.826;2024-03-08T11:51:26;99.47;;;59.10;;
76357;SDS011;65185;21.060;105.826;2024-03-08T11:53:53;109.10;;;62.75;;
76357;SDS011;65185;21.060;105.826;2024-03-08T11:56:21;102.68;;;61.75;;
76357;SDS011;65185;21.060;105.826;2024-03-08T11:58:54;99.50;;;60.75;;
76357;SDS011;65185;21.060;105.826;2024-03-08T12:01:22;102.30;;;62.60;;
76357;SDS011;65185;21.060;105.826;2024-03-08T12:03:56;108.30;;;64.40;;
76357;SDS011;65185;21.060;105.826;2024-03-08T12:06:27;115.93;;;69.72;;
76357;SDS011;65185;21.060;105.826;2024-03-08T12:09:09;156.07;;;91.22;;
76357;SDS011;65185;21.060;105.826;2024-03-08T12:11:40;163.55;;;103.60;;
76357;SDS011;65185;21.060;105.826;2024-03-08T12:14:08;160.05;;;101.93;;
76357;SDS011;65185;21.060;105.826;2024-03-08T12:16:38;196.57;;;119.05;;
76357;SDS011;65185;21.060;105.826;2024-03-08T12:21:36;175.50;;;103.72;;
76357;SDS011;65185;21.060;105.826;2024-03-08T12:24:08;174.20;;;105.88;;
76357;SDS011;65185;21.060;105.826;2024-03-08T12:26:36;162.43;;;101.97;;
76357;SDS011;65185;21.060;105.826;2024-03-08T12:29:14;162.65;;;100.85;;
76357;SDS011;65185;21.060;105.826;2024-03-08T12:31:43;150.18;;;92.03;;
76357;SDS011;65185;21.060;105.826;2024-03-08T12:34:12;140.27;;;85.03;;
76357;SDS011;65185;21.060;105.826;2024-03-08T12:39:17;139.95;;;84.78;;
76357;SDS011;65185;21.060;105.826;2024-03-08T12:41:48;138.88;;;82.13;;
76357;SDS011;65185;21.060;105.826;2024-03-08T12:44:18;131.05;;;79.63;;
76357;SDS011;65185;21.060;105.826;2024-03-08T12:46:51;149.15;;;87.15;;
76357;SDS011;65185;21.060;105.826;2024-03-08T12:49:19;146.68;;;85.13;;
76357;SDS011;65185;21.060;105.826;2024-03-08T12:54:15;138.90;;;81.15;;
76357;SDS011;65185;21.060;105.826;2024-03-08T12:56:41;141.35;;;82.03;;
76357;SDS011;65185;21.060;105.826;2024-03-08T12:59:08;136.48;;;80.03;;
76357;SDS011;65185;21.060;105.826;2024-03-08T13:01:38;149.13;;;86.47;;
76357;SDS011;65185;21.060;105.826;2024-03-08T13:04:05;143.68;;;84.15;;
76357;SDS011;65185;21.060;105.826;2024-03-08T13:06:36;150.43;;;87.93;;
76357;SDS011;65185;21.060;105.826;2024-03-08T13:09:03;175.15;;;93.93;;
76357;SDS011;65185;21.060;105.826;2024-03-08T13:11:31;151.63;;;88.72;;
76357;SDS011;65185;21.060;105.826;2024-03-08T13:14:02;156.63;;;92.40;;
76357;SDS011;65185;21.060;105.826;2024-03-08T13:16:30;183.65;;;100.10;;
76357;SDS011;65185;21.060;105.826;2024-03-08T13:18:58;192.32;;;105.63;;
76357;SDS011;65185;21.060;105.826;2024-03-08T13:21:25;173.93;;;99.53;;
76357;SDS011;65185;21.060;105.826;2024-03-08T13:23:51;164.13;;;95.88;;
76357;SDS011;65185;21.060;105.826;2024-03-08T13:26:18;175.10;;;99.15;;
76357;SDS011;65185;21.060;105.826;2024-03-08T13:28:45;202.63;;;109.30;;
76357;SDS011;65185;21.060;105.826;2024-03-08T13:31:14;185.57;;;105.65;;
76357;SDS011;65185;21.060;105.826;2024-03-08T13:33:41;180.50;;;105.07;;
76357;SDS011;65185;21.060;105.826;2024-03-08T13:36:11;192.40;;;107.93;;
76357;SDS011;65185;21.060;105.826;2024-03-08T13:38:45;165.75;;;95.10;;
76357;SDS011;65185;21.060;105.826;2024-03-08T13:41:13;155.57;;;89.45;;
76357;SDS011;65185;21.060;105.826;2024-03-08T13:43:42;152.10;;;88.05;;
76357;SDS011;65185;21.060;105.826;2024-03-08T13:46:11;144.68;;;86.28;;
76357;SDS011;65185;21.060;105.826;2024-03-08T13:48:38;157.52;;;92.47;;
76357;SDS011;65185;21.060;105.826;2024-03-08T13:51:04;145.43;;;85.57;;
76357;SDS011;65185;21.060;105.826;2024-03-08T13:53:32;155.88;;;91.85;;
76357;SDS011;65185;21.060;105.826;2024-03-08T13:56:01;155.05;;;89.60;;
76357;SDS011;65185;21.060;105.826;2024-03-08T13:58:28;165.48;;;92.93;;
76357;SDS011;65185;21.060;105.826;2024-03-08T14:00:55;201.02;;;108.38;;
76357;SDS011;65185;21.060;105.826;2024-03-08T14:03:22;187.80;;;104.68;;
76357;SDS011;65185;21.060;105.826;2024-03-08T14:05:51;209.95;;;112.20;;
76357;SDS011;65185;21.060;105.826;2024-03-08T14:08:20;232.60;;;119.57;;
76357;SDS011;65185;21.060;105.826;2024-03-08T14:10:53;237.52;;;119.07;;
76357;SDS011;65185;21.060;105.826;2024-03-08T14:13:20;234.07;;;119.13;;
76357;SDS011;65185;21.060;105.826;2024-03-08T14:15:46;227.65;;;116.78;;
76357;SDS011;65185;21.060;105.826;2024-03-08T14:18:13;227.73;;;115.63;;
76357;SDS011;65185;21.060;105.826;2024-03-08T14:20:41;230.52;;;114.78;;
76357;SDS011;65185;21.060;105.826;2024-03-08T14:23:07;212.95;;;113.55;;
76357;SDS011;65185;21.060;105.826;2024-03-08T14:25:34;219.40;;;115.65;;
76357;SDS011;65185;21.060;105.826;2024-03-08T14:28:01;229.43;;;116.03;;
76357;SDS011;65185;21.060;105.826;2024-03-08T14:30:33;213.90;;;112.93;;